createdAt,value
2019-05-05T00:02:19.566Z,8.30
2019-05-05T00:04:37.317Z,8.20
2019-05-05T00:06:40.569Z,8.20
2019-05-05T00:08:45.699Z,8.10
2019-05-05T00:10:54.525Z,8.10
2019-05-05T00:13:12.351Z,8.10
2019-05-05T00:15:34.509Z,8.00
2019-05-05T00:17:38.614Z,8.00
2019-05-05T00:19:41.937Z,8.00
2019-05-05T00:21:45.209Z,7.90
2019-05-05T00:23:48.440Z,7.90
2019-05-05T00:25:51.673Z,7.80
2019-05-05T00:27:54.937Z,7.80
2019-05-05T00:29:58.188Z,7.80
2019-05-05T00:32:01.460Z,7.80
2019-05-05T00:34:05.228Z,7.80
2019-05-05T00:36:08.529Z,7.70
2019-05-05T00:38:11.813Z,7.70
2019-05-05T00:40:15.074Z,7.70
2019-05-05T00:42:19.529Z,7.70
2019-05-05T00:44:24.608Z,7.70
2019-05-05T00:46:35.284Z,7.60
2019-05-05T00:48:45.820Z,7.60
2019-05-05T00:50:51.719Z,7.50
2019-05-05T00:52:55.041Z,7.50
2019-05-05T00:54:58.578Z,7.60
2019-05-05T00:57:01.829Z,7.50
2019-05-05T00:59:06.774Z,7.50
2019-05-05T01:01:14.501Z,7.60
2019-05-05T01:03:19.495Z,7.60
2019-05-05T01:05:25.323Z,7.60
2019-05-05T01:07:28.726Z,7.70
2019-05-05T01:09:34.436Z,7.70
2019-05-05T01:11:37.500Z,7.70
2019-05-05T01:13:40.753Z,7.70
2019-05-05T01:15:44.875Z,7.70
2019-05-05T01:17:48.247Z,7.60
2019-05-05T01:20:01.251Z,7.50
2019-05-05T01:21:56.486Z,7.50
2019-05-05T01:23:59.778Z,7.50
2019-05-05T01:26:05.121Z,7.50
2019-05-05T01:28:08.345Z,7.50
2019-05-05T01:30:15.207Z,7.50
2019-05-05T01:32:20.168Z,7.50
2019-05-05T01:34:25.065Z,7.60
2019-05-05T01:36:28.314Z,7.60
2019-05-05T01:38:34.221Z,7.60
2019-05-05T01:40:39.261Z,7.60
2019-05-05T01:42:44.574Z,7.70
2019-05-05T01:44:47.522Z,7.70
2019-05-05T01:46:50.775Z,7.70
2019-05-05T01:48:54.898Z,7.80
2019-05-05T01:50:58.380Z,7.80
2019-05-05T01:53:01.635Z,7.90
2019-05-05T01:55:06.410Z,7.90
2019-05-05T01:57:09.642Z,7.90
2019-05-05T01:59:14.376Z,7.90
2019-05-05T02:01:19.444Z,7.90
2019-05-05T02:03:24.409Z,8.00
2019-05-05T02:05:27.850Z,8.00
2019-05-05T02:07:31.090Z,8.00
2019-05-05T02:09:35.394Z,8.00
2019-05-05T02:11:38.874Z,8.00
2019-05-05T02:13:42.156Z,8.00
2019-05-05T02:15:45.436Z,8.00
2019-05-05T02:17:48.671Z,8.00
2019-05-05T02:19:52.013Z,8.00
2019-05-05T02:21:55.249Z,8.00
2019-05-05T02:23:58.492Z,8.00
2019-05-05T02:26:01.729Z,8.00
2019-05-05T02:28:04.960Z,8.00
2019-05-05T02:30:09.888Z,8.00
2019-05-05T02:32:15.780Z,8.00
2019-05-05T02:34:19.377Z,8.00
2019-05-05T02:36:25.560Z,8.00
2019-05-05T02:38:27.588Z,8.10
2019-05-05T02:40:30.868Z,8.10
2019-05-05T02:42:35.435Z,8.10
2019-05-05T02:44:39.051Z,8.10
2019-05-05T02:46:55.141Z,8.10
2019-05-05T02:48:58.171Z,8.00
2019-05-05T02:51:02.871Z,8.10
2019-05-05T02:53:06.382Z,8.00
2019-05-05T02:55:09.988Z,8.00
2019-05-05T02:57:13.539Z,8.00
2019-05-05T02:59:19.163Z,8.00
2019-05-05T03:01:24.462Z,8.00
2019-05-05T03:03:27.860Z,8.00
2019-05-05T03:05:31.108Z,8.00
2019-05-05T03:07:34.492Z,8.00
2019-05-05T03:09:37.865Z,8.00
2019-05-05T03:11:41.134Z,8.00
2019-05-05T03:13:44.384Z,8.00
2019-05-05T03:16:16.261Z,7.90
2019-05-05T03:18:19.682Z,7.90
2019-05-05T03:20:23.706Z,8.00
2019-05-05T03:22:27.162Z,7.90
2019-05-05T03:24:30.492Z,7.90
2019-05-05T03:26:34.089Z,7.90
2019-05-05T03:28:48.356Z,7.90
2019-05-05T03:30:51.584Z,7.90
2019-05-05T03:32:55.986Z,7.90
2019-05-05T03:34:59.476Z,7.80
2019-05-05T03:37:04.230Z,7.80
2019-05-05T03:39:09.386Z,7.80
2019-05-05T03:41:14.248Z,7.80
2019-05-05T03:43:25.137Z,7.90
2019-05-05T03:45:34.180Z,7.90
2019-05-05T03:47:37.799Z,7.90
2019-05-05T03:49:41.495Z,7.90
2019-05-05T03:51:44.721Z,7.90
2019-05-05T03:53:48.047Z,7.90
2019-05-05T03:55:51.283Z,7.90
2019-05-05T03:57:54.793Z,7.90
2019-05-05T03:59:58.043Z,7.90
2019-05-05T04:02:03.935Z,7.90
2019-05-05T04:04:24.590Z,7.90
2019-05-05T04:06:35.401Z,7.90
2019-05-05T04:08:38.661Z,7.90
2019-05-05T04:10:43.835Z,7.90
2019-05-05T04:12:46.876Z,7.90
2019-05-05T04:14:50.169Z,7.90
2019-05-05T04:16:55.041Z,7.80
2019-05-05T04:18:59.922Z,7.90
2019-05-05T04:21:03.999Z,7.90
2019-05-05T04:23:07.415Z,7.90
2019-05-05T04:25:10.658Z,7.90
2019-05-05T04:27:14.690Z,7.90
2019-05-05T04:29:18.152Z,7.90
2019-05-05T04:31:21.382Z,7.90
2019-05-05T04:33:24.652Z,7.90
2019-05-05T04:35:27.887Z,7.80
2019-05-05T04:37:31.134Z,7.90
2019-05-05T04:39:34.515Z,7.90
2019-05-05T04:41:37.874Z,7.90
2019-05-05T04:43:41.121Z,7.90
2019-05-05T04:45:44.372Z,7.90
2019-05-05T04:47:49.333Z,7.90
2019-05-05T04:49:57.310Z,7.90
2019-05-05T04:52:08.219Z,7.90
2019-05-05T04:54:15.907Z,7.90
2019-05-05T04:56:19.154Z,7.90
2019-05-05T04:58:24.209Z,7.90
2019-05-05T05:00:27.368Z,7.80
2019-05-05T05:02:37.949Z,7.80
2019-05-05T05:04:54.715Z,7.80
2019-05-05T05:06:59.579Z,7.70
2019-05-05T05:09:04.055Z,7.70
2019-05-05T05:11:07.456Z,7.70
2019-05-05T05:13:10.766Z,7.70
2019-05-05T05:15:14.685Z,7.70
2019-05-05T05:17:19.988Z,7.70
2019-05-05T05:19:24.179Z,7.70
2019-05-05T05:21:27.753Z,7.80
2019-05-05T05:23:30.997Z,7.80
2019-05-05T05:25:34.774Z,7.80
2019-05-05T05:27:38.244Z,7.80
2019-05-05T05:29:41.473Z,7.90
2019-05-05T05:31:44.730Z,7.90
2019-05-05T05:33:47.964Z,7.90
2019-05-05T05:35:51.197Z,8.00
2019-05-05T05:37:57.611Z,8.00
2019-05-05T05:40:06.795Z,8.00
2019-05-05T05:42:10.061Z,8.00
2019-05-05T05:44:17.822Z,8.10
2019-05-05T05:46:24.089Z,8.10
2019-05-05T05:48:35.396Z,8.10
2019-05-05T05:50:53.696Z,8.10
2019-05-05T05:52:57.013Z,8.10
2019-05-05T05:55:00.245Z,8.10
2019-05-05T05:57:04.336Z,8.10
2019-05-05T05:59:07.925Z,8.20
2019-05-05T06:01:11.221Z,8.20
2019-05-05T06:03:14.476Z,8.20
2019-05-05T06:05:17.793Z,8.20
2019-05-05T06:07:21.039Z,8.20
2019-05-05T06:09:24.268Z,8.20
2019-05-05T06:11:27.534Z,8.20
2019-05-05T06:13:30.755Z,8.20
2019-05-05T06:15:35.148Z,8.30
2019-05-05T06:17:38.424Z,8.30
2019-05-05T06:19:41.803Z,8.30
2019-05-05T06:21:45.076Z,8.30
2019-05-05T06:23:48.300Z,8.30
2019-05-05T06:25:51.558Z,8.40
2019-05-05T06:27:54.813Z,8.40
2019-05-05T06:29:58.067Z,8.40
2019-05-05T06:32:01.373Z,8.40
2019-05-05T06:34:04.611Z,8.50
2019-05-05T06:36:07.856Z,8.40
2019-05-05T06:38:11.121Z,8.50
2019-05-05T06:40:16.034Z,8.50
2019-05-05T06:42:20.915Z,8.50
2019-05-05T06:44:25.827Z,8.60
2019-05-05T06:46:30.725Z,8.60
2019-05-05T06:48:34.414Z,8.60
2019-05-05T06:50:37.834Z,8.70
2019-05-05T06:52:44.490Z,8.70
2019-05-05T06:54:46.082Z,8.80
2019-05-05T06:56:49.312Z,8.80
2019-05-05T06:58:54.137Z,8.80
2019-05-05T07:00:57.457Z,8.80
2019-05-05T07:03:00.713Z,8.90
2019-05-05T07:05:04.921Z,8.90
2019-05-05T07:07:08.179Z,8.90
2019-05-05T07:09:13.391Z,9.00
2019-05-05T07:11:16.485Z,9.00
2019-05-05T07:13:19.854Z,9.00
2019-05-05T07:15:23.746Z,9.10
2019-05-05T07:17:27.011Z,9.10
2019-05-05T07:19:30.289Z,9.10
2019-05-05T07:21:34.244Z,9.20
2019-05-05T07:23:37.662Z,9.20
2019-05-05T07:25:43.747Z,9.30
2019-05-05T07:27:45.987Z,9.30
2019-05-05T07:29:49.272Z,9.40
2019-05-05T07:31:54.478Z,9.40
2019-05-05T07:33:57.496Z,9.40
2019-05-05T07:36:06.143Z,9.50
2019-05-05T07:38:09.533Z,9.50
2019-05-05T07:40:13.634Z,9.50
2019-05-05T07:42:17.006Z,9.60
2019-05-05T07:44:28.405Z,9.60
2019-05-05T07:46:25.244Z,9.60
2019-05-05T07:48:28.510Z,9.70
2019-05-05T07:50:32.627Z,9.70
2019-05-05T07:52:36.740Z,9.80
2019-05-05T07:54:40.021Z,9.80
2019-05-05T07:56:44.364Z,9.90
2019-05-05T07:58:47.994Z,9.90
2019-05-05T08:00:51.272Z,9.90
2019-05-05T08:02:54.579Z,10.00
2019-05-05T08:04:57.845Z,10.00
2019-05-05T08:07:01.090Z,10.00
2019-05-05T08:09:05.681Z,10.10
2019-05-05T08:11:08.948Z,10.10
2019-05-05T08:13:14.154Z,10.20
2019-05-05T08:15:18.961Z,10.20
2019-05-05T08:17:29.838Z,10.20
2019-05-05T08:19:40.520Z,10.20
2019-05-05T08:21:43.860Z,10.30
2019-05-05T08:23:57.747Z,10.30
2019-05-05T08:26:17.545Z,10.30
2019-05-05T08:28:28.742Z,10.40
2019-05-05T08:30:36.326Z,10.40
2019-05-05T08:32:41.043Z,10.40
2019-05-05T08:34:57.396Z,10.50
2019-05-05T08:36:49.376Z,10.60
2019-05-05T08:38:54.590Z,10.70
2019-05-05T08:40:57.667Z,10.80
2019-05-05T08:43:00.918Z,10.90
2019-05-05T08:45:05.180Z,11.00
2019-05-05T08:47:08.426Z,11.10
2019-05-05T08:49:13.609Z,11.20
2019-05-05T08:51:16.700Z,11.20
2019-05-05T08:53:19.946Z,11.20
2019-05-05T08:55:24.887Z,11.20
2019-05-05T08:57:28.250Z,11.20
2019-05-05T08:59:33.569Z,11.20
2019-05-05T09:01:36.564Z,11.30
2019-05-05T09:03:39.824Z,11.20
2019-05-05T09:05:43.760Z,11.20
2019-05-05T09:07:47.213Z,11.30
2019-05-05T09:09:50.461Z,11.30
2019-05-05T09:11:54.262Z,11.30
2019-05-05T09:13:57.715Z,11.40
2019-05-05T09:16:01.004Z,11.40
2019-05-05T09:18:04.964Z,11.50
2019-05-05T09:20:08.393Z,11.50
2019-05-05T09:22:13.813Z,11.50
2019-05-05T09:24:30.337Z,11.50
2019-05-05T09:26:35.286Z,11.50
2019-05-05T09:28:49.423Z,11.60
2019-05-05T09:30:53.647Z,11.60
2019-05-05T09:32:57.169Z,11.60
2019-05-05T09:35:00.437Z,11.60
2019-05-05T09:37:04.749Z,11.60
2019-05-05T09:39:07.992Z,11.70
2019-05-05T09:41:11.271Z,11.80
2019-05-05T09:43:14.954Z,11.80
2019-05-05T09:45:19.799Z,11.90
2019-05-05T09:47:24.037Z,11.90
2019-05-05T09:49:27.432Z,12.00
2019-05-05T09:51:30.673Z,12.00
2019-05-05T09:53:34.521Z,12.00
2019-05-05T09:55:38.118Z,12.10
2019-05-05T09:57:43.631Z,12.10
2019-05-05T09:59:46.440Z,12.20
2019-05-05T10:01:50.025Z,12.20
2019-05-05T10:03:54.942Z,12.30
2019-05-05T10:05:58.189Z,12.30
2019-05-05T10:08:03.377Z,12.40
2019-05-05T10:10:06.451Z,12.50
2019-05-05T10:12:09.727Z,12.60
2019-05-05T10:14:14.372Z,12.70
2019-05-05T10:16:17.789Z,12.70
2019-05-05T10:18:21.049Z,12.90
2019-05-05T10:20:24.353Z,12.90
2019-05-05T10:22:27.612Z,13.00
2019-05-05T10:24:38.613Z,13.00
2019-05-05T10:26:43.814Z,13.00
2019-05-05T10:28:47.072Z,13.00
2019-05-05T10:30:50.333Z,13.00
2019-05-05T10:32:54.558Z,13.00
2019-05-05T10:35:04.149Z,13.10
2019-05-05T10:37:07.208Z,13.10
2019-05-05T10:39:12.146Z,13.20
2019-05-05T10:41:15.464Z,13.30
2019-05-05T10:43:18.735Z,13.40
2019-05-05T10:45:24.215Z,13.50
2019-05-05T10:47:27.325Z,13.60
2019-05-05T10:49:30.627Z,13.70
2019-05-05T10:51:35.281Z,13.80
2019-05-05T10:53:38.580Z,13.90
2019-05-05T10:55:41.946Z,13.90
2019-05-05T10:57:45.274Z,14.00
2019-05-05T10:59:48.573Z,14.00
2019-05-05T11:01:53.789Z,14.00
2019-05-05T11:03:56.836Z,14.00
2019-05-05T11:06:00.081Z,14.00
2019-05-05T11:08:04.377Z,14.00
2019-05-05T11:10:07.849Z,14.00
2019-05-05T11:12:11.151Z,14.00
2019-05-05T11:14:14.433Z,14.00
2019-05-05T11:16:17.691Z,14.00
2019-05-05T11:18:20.981Z,14.00
2019-05-05T11:20:24.772Z,14.00
2019-05-05T11:22:28.211Z,14.10
2019-05-05T11:24:31.473Z,14.20
2019-05-05T11:26:34.781Z,14.40
2019-05-05T11:28:38.043Z,14.50
2019-05-05T11:30:43.539Z,14.70
2019-05-05T11:33:05.041Z,14.80
2019-05-05T11:35:08.321Z,15.00
2019-05-05T11:37:13.214Z,15.10
2019-05-05T11:39:16.474Z,15.30
2019-05-05T11:41:19.850Z,15.30
2019-05-05T11:43:24.704Z,15.40
2019-05-05T11:45:28.235Z,15.40
2019-05-05T11:47:33.280Z,15.40
2019-05-05T11:49:36.562Z,15.40
2019-05-05T11:51:39.830Z,15.40
2019-05-05T11:53:44.729Z,15.40
2019-05-05T11:55:48.245Z,15.40
2019-05-05T11:57:51.527Z,15.40
2019-05-05T11:59:54.790Z,15.50
2019-05-05T12:01:58.068Z,15.50
2019-05-05T12:04:04.051Z,15.60
2019-05-05T12:06:07.669Z,15.70
2019-05-05T12:08:10.946Z,15.70
2019-05-05T12:10:23.376Z,15.70
2019-05-05T12:12:26.694Z,15.80
2019-05-05T12:14:31.743Z,15.80
2019-05-05T12:16:35.074Z,15.70
2019-05-05T12:18:38.425Z,15.70
2019-05-05T12:20:43.919Z,15.70
2019-05-05T12:22:46.869Z,15.70
2019-05-05T12:24:50.400Z,15.70
2019-05-05T12:26:58.434Z,15.60
2019-05-05T12:29:03.392Z,15.60
2019-05-05T12:31:11.019Z,15.60
2019-05-05T12:33:14.289Z,15.60
2019-05-05T12:35:17.610Z,15.60
2019-05-05T12:37:20.870Z,15.50
2019-05-05T12:39:24.154Z,15.40
2019-05-05T12:41:27.424Z,15.40
2019-05-05T12:43:30.774Z,15.30
2019-05-05T12:45:35.748Z,15.30
2019-05-05T12:47:40.752Z,15.30
2019-05-05T12:49:44.082Z,15.20
2019-05-05T12:51:47.395Z,15.20
2019-05-05T12:53:50.674Z,15.20
2019-05-05T12:56:06.783Z,15.20
2019-05-05T12:58:10.049Z,15.20
2019-05-05T13:00:14.612Z,15.20
2019-05-05T13:02:18.039Z,15.30
2019-05-05T13:04:21.730Z,15.30
2019-05-05T13:06:25.011Z,15.30
2019-05-05T13:08:28.365Z,15.30
2019-05-05T13:10:33.587Z,15.40
2019-05-05T13:12:36.626Z,15.40
2019-05-05T13:14:39.932Z,15.40
2019-05-05T13:16:52.810Z,15.40
2019-05-05T13:18:48.190Z,15.40
2019-05-05T13:20:59.165Z,15.40
2019-05-05T13:23:16.378Z,15.40
2019-05-05T13:25:24.027Z,15.40
2019-05-05T13:27:35.011Z,15.40
2019-05-05T13:29:38.361Z,15.40
2019-05-05T13:31:44.063Z,15.40
2019-05-05T13:33:46.957Z,15.40
2019-05-05T13:35:50.213Z,15.40
2019-05-05T13:37:54.927Z,15.50
2019-05-05T13:39:58.389Z,15.50
2019-05-05T13:42:01.727Z,15.60
2019-05-05T13:44:06.614Z,15.60
2019-05-05T13:46:26.834Z,15.60
2019-05-05T13:48:30.124Z,15.60
2019-05-05T13:50:37.790Z,15.60
2019-05-05T13:52:41.081Z,15.60
2019-05-05T13:54:44.353Z,15.50
2019-05-05T13:56:47.602Z,15.50
2019-05-05T13:58:50.865Z,15.40
2019-05-05T14:00:56.123Z,15.30
2019-05-05T14:02:59.361Z,15.30
2019-05-05T14:05:04.603Z,15.20
2019-05-05T14:07:07.725Z,15.10
2019-05-05T14:09:10.997Z,15.10
2019-05-05T14:11:14.396Z,15.00
2019-05-05T14:13:17.675Z,15.00
2019-05-05T14:15:20.995Z,14.90
2019-05-05T14:17:24.235Z,14.90
2019-05-05T14:19:27.498Z,14.90
2019-05-05T14:21:30.792Z,14.90
2019-05-05T14:23:35.696Z,14.90
2019-05-05T14:25:39.011Z,14.90
2019-05-05T14:27:43.639Z,15.00
2019-05-05T14:29:48.739Z,14.90
2019-05-05T14:31:54.090Z,15.00
2019-05-05T14:33:58.639Z,15.00
2019-05-05T14:36:09.523Z,15.00
2019-05-05T14:38:14.631Z,14.90
2019-05-05T14:40:18.291Z,14.90
2019-05-05T14:42:23.408Z,14.90
2019-05-05T14:44:26.578Z,14.80
2019-05-05T14:46:29.927Z,14.80
2019-05-05T14:48:34.036Z,14.80
2019-05-05T14:50:38.205Z,14.80
2019-05-05T14:52:44.078Z,14.80
2019-05-05T14:54:48.541Z,14.80
2019-05-05T14:56:51.855Z,14.80
2019-05-05T14:58:55.141Z,14.80
2019-05-05T15:00:58.490Z,14.80
2019-05-05T15:03:03.672Z,14.80
2019-05-05T15:05:25.195Z,14.80
2019-05-05T15:07:33.975Z,14.80
2019-05-05T15:09:48.366Z,14.80
2019-05-05T15:11:56.038Z,14.90
2019-05-05T15:13:59.316Z,14.90
2019-05-05T15:16:04.036Z,14.90
2019-05-05T15:18:07.539Z,14.90
2019-05-05T15:20:13.922Z,14.90
2019-05-05T15:22:19.887Z,14.90
2019-05-05T15:24:25.206Z,14.90
2019-05-05T15:26:28.608Z,14.90
2019-05-05T15:28:33.651Z,14.80
2019-05-05T15:30:37.166Z,14.90
2019-05-05T15:32:40.429Z,14.80
2019-05-05T15:34:43.913Z,14.80
2019-05-05T15:36:47.224Z,14.70
2019-05-05T15:38:50.486Z,14.70
2019-05-05T15:40:54.756Z,14.70
2019-05-05T15:42:58.293Z,14.60
2019-05-05T15:45:03.830Z,14.60
2019-05-05T15:47:06.550Z,14.60
2019-05-05T15:49:09.950Z,14.60
2019-05-05T15:51:14.486Z,14.60
2019-05-05T15:53:17.863Z,14.60
2019-05-05T15:55:21.303Z,14.60
2019-05-05T15:57:24.573Z,14.60
2019-05-05T15:59:27.833Z,14.60
2019-05-05T16:01:31.153Z,14.70
2019-05-05T16:03:34.440Z,14.70
2019-05-05T16:05:37.823Z,14.80
2019-05-05T16:07:41.094Z,14.90
2019-05-05T16:09:46.768Z,15.00
2019-05-05T16:11:49.329Z,15.10
2019-05-05T16:13:54.391Z,15.20
2019-05-05T16:16:14.705Z,15.30
2019-05-05T16:18:22.486Z,15.40
2019-05-05T16:20:44.351Z,15.60
2019-05-05T16:22:55.853Z,15.60
2019-05-05T16:25:14.042Z,15.60
2019-05-05T16:27:21.628Z,15.60
2019-05-05T16:29:23.751Z,15.60
2019-05-05T16:31:27.747Z,15.60
2019-05-05T16:33:31.128Z,15.60
2019-05-05T16:35:34.407Z,15.50
2019-05-05T16:37:37.688Z,15.40
2019-05-05T16:39:40.962Z,15.40
2019-05-05T16:41:44.295Z,15.40
2019-05-05T16:43:47.682Z,15.30
2019-05-05T16:45:51.147Z,15.30
2019-05-05T16:47:54.620Z,15.20
2019-05-05T16:49:58.176Z,15.20
2019-05-05T16:52:04.069Z,15.10
2019-05-05T16:54:09.190Z,15.10
2019-05-05T16:56:16.877Z,15.10
2019-05-05T16:58:20.156Z,15.10
2019-05-05T17:00:25.681Z,15.00
2019-05-05T17:02:28.471Z,15.00
2019-05-05T17:04:31.750Z,15.00
2019-05-05T17:06:35.093Z,14.90
2019-05-05T17:08:38.362Z,14.90
2019-05-05T17:10:43.399Z,14.90
2019-05-05T17:12:46.724Z,14.90
2019-05-05T17:14:53.648Z,14.90
2019-05-05T17:17:07.504Z,14.80
2019-05-05T17:19:30.450Z,14.80
2019-05-05T17:21:35.478Z,14.80
2019-05-05T17:23:38.765Z,14.80
2019-05-05T17:25:43.816Z,14.70
2019-05-05T17:27:50.942Z,14.70
2019-05-05T17:29:53.621Z,14.70
2019-05-05T17:31:57.139Z,14.70
2019-05-05T17:34:00.406Z,14.60
2019-05-05T17:36:04.596Z,14.60
2019-05-05T17:38:09.729Z,14.60
2019-05-05T17:40:14.624Z,14.50
2019-05-05T17:42:23.967Z,14.50
2019-05-05T17:44:29.165Z,14.50
2019-05-05T17:46:44.498Z,14.50
2019-05-05T17:48:49.738Z,14.40
2019-05-05T17:51:13.870Z,14.40
2019-05-05T17:53:36.989Z,14.40
2019-05-05T17:55:41.784Z,14.40
2019-05-05T17:57:45.053Z,14.30
2019-05-05T17:59:48.416Z,14.20
2019-05-05T18:01:53.838Z,14.20
2019-05-05T18:03:56.857Z,14.20
2019-05-05T18:06:18.417Z,14.10
2019-05-05T18:08:35.530Z,14.00
2019-05-05T18:10:46.092Z,14.00
2019-05-05T18:12:56.644Z,13.90
2019-05-05T18:15:01.599Z,13.80
2019-05-05T18:17:04.947Z,13.80
2019-05-05T18:19:08.237Z,13.70
2019-05-05T18:21:11.627Z,13.60
2019-05-05T18:23:14.895Z,13.50
2019-05-05T18:25:18.295Z,13.50
2019-05-05T18:27:23.706Z,13.40
2019-05-05T18:29:27.194Z,13.40
2019-05-05T18:31:30.579Z,13.30
2019-05-05T18:33:34.076Z,13.20
2019-05-05T18:35:37.365Z,13.20
2019-05-05T18:37:40.730Z,13.10
2019-05-05T18:39:44.111Z,13.00
2019-05-05T18:41:49.033Z,13.00
2019-05-05T18:43:56.730Z,12.90
2019-05-05T18:46:04.716Z,12.80
2019-05-05T18:48:09.079Z,12.80
2019-05-05T18:50:13.623Z,12.70
2019-05-05T18:52:18.166Z,12.60
2019-05-05T18:54:21.483Z,12.60
2019-05-05T18:56:24.767Z,12.50
2019-05-05T18:58:30.370Z,12.40
2019-05-05T19:00:38.208Z,12.30
2019-05-05T19:02:49.333Z,12.20
2019-05-05T19:05:10.865Z,12.10
2019-05-05T19:07:23.758Z,12.00
2019-05-05T19:09:26.869Z,11.90
2019-05-05T19:11:30.142Z,11.80
2019-05-05T19:13:34.064Z,11.70
2019-05-05T19:15:37.502Z,11.70
2019-05-05T19:17:40.848Z,11.60
2019-05-05T19:19:47.054Z,11.50
2019-05-05T19:21:52.088Z,11.40
2019-05-05T19:23:55.454Z,11.40
2019-05-05T19:25:58.858Z,11.30
2019-05-05T19:28:02.169Z,11.30
2019-05-05T19:30:06.679Z,11.20
2019-05-05T19:32:10.166Z,11.20
2019-05-05T19:34:14.569Z,11.20
2019-05-05T19:36:18.112Z,11.10
2019-05-05T19:38:23.571Z,11.10
2019-05-05T19:40:26.379Z,11.00
2019-05-05T19:42:29.660Z,11.00
2019-05-05T19:44:33.853Z,11.00
2019-05-05T19:46:38.987Z,11.00
2019-05-05T19:48:42.259Z,10.90
2019-05-05T19:50:47.284Z,10.90
2019-05-05T19:52:50.567Z,10.90
2019-05-05T19:54:54.733Z,10.80
2019-05-05T19:56:58.385Z,10.80
2019-05-05T19:59:02.490Z,10.70
2019-05-05T20:01:06.740Z,10.70
2019-05-05T20:03:10.028Z,10.60
2019-05-05T20:05:14.562Z,10.60
2019-05-05T20:07:17.835Z,10.60
2019-05-05T20:09:21.093Z,10.60
2019-05-05T20:11:24.780Z,10.50
2019-05-05T20:13:28.276Z,10.50
2019-05-05T20:15:33.825Z,10.50
2019-05-05T20:17:39.721Z,10.50
2019-05-05T20:19:44.149Z,10.50
2019-05-05T20:21:47.531Z,10.50
2019-05-05T20:23:50.855Z,10.50
2019-05-05T20:25:56.658Z,10.50
2019-05-05T20:27:59.210Z,10.50
2019-05-05T20:30:06.166Z,10.50
2019-05-05T20:32:08.255Z,10.50
2019-05-05T20:34:15.626Z,10.50
2019-05-05T20:36:20.534Z,10.50
2019-05-05T20:38:31.435Z,10.50
2019-05-05T20:40:36.487Z,10.50
2019-05-05T20:42:39.815Z,10.50
2019-05-05T20:44:43.872Z,10.50
2019-05-05T20:46:47.321Z,10.50
2019-05-05T20:48:50.608Z,10.50
2019-05-05T20:50:54.684Z,10.50
2019-05-05T20:52:58.214Z,10.60
2019-05-05T20:55:01.495Z,10.60
2019-05-05T20:57:04.761Z,10.60
2019-05-05T20:59:08.053Z,10.70
2019-05-05T21:01:11.391Z,10.70
2019-05-05T21:03:14.766Z,10.70
2019-05-05T21:05:18.102Z,10.70
2019-05-05T21:07:25.846Z,10.80
2019-05-05T21:09:26.340Z,10.80
2019-05-05T21:11:29.618Z,10.80
2019-05-05T21:13:34.204Z,10.90
2019-05-05T21:15:37.801Z,10.90
2019-05-05T21:17:41.062Z,10.90
2019-05-05T21:19:44.403Z,10.90
2019-05-05T21:21:49.301Z,10.90
2019-05-05T21:23:54.730Z,11.00
2019-05-05T21:26:04.267Z,11.00
2019-05-05T21:28:07.700Z,11.00
2019-05-05T21:30:10.965Z,11.00
2019-05-05T21:32:14.227Z,11.00
2019-05-05T21:34:17.534Z,11.00
2019-05-05T21:36:20.784Z,11.00
2019-05-05T21:38:24.031Z,11.00
2019-05-05T21:42:44.845Z,11.00
2019-05-05T21:44:48.125Z,11.00
2019-05-05T21:46:53.483Z,11.00
2019-05-05T21:48:56.445Z,11.00
2019-05-05T21:51:14.256Z,11.10
2019-05-05T21:53:22.108Z,11.00
2019-05-05T21:55:27.008Z,11.10
2019-05-05T21:57:32.019Z,11.10
2019-05-05T21:59:35.324Z,11.10
2019-05-05T22:01:40.177Z,11.10
2019-05-05T22:03:44.378Z,11.10
2019-05-05T22:05:47.911Z,11.10
2019-05-05T22:07:51.145Z,11.10
2019-05-05T22:09:54.629Z,11.10
2019-05-05T22:11:58.025Z,11.10
2019-05-05T22:14:01.249Z,11.10
2019-05-05T22:16:04.515Z,11.10
2019-05-05T22:18:07.833Z,11.10
2019-05-05T22:20:14.343Z,11.10
2019-05-05T22:22:19.478Z,11.10
2019-05-05T22:24:23.257Z,11.10
2019-05-05T22:26:26.548Z,11.10
2019-05-05T22:28:29.789Z,11.10
2019-05-05T22:30:34.434Z,11.10
2019-05-05T22:32:37.781Z,11.20
2019-05-05T22:34:41.031Z,11.20
2019-05-05T22:36:44.881Z,11.20
2019-05-05T22:38:48.338Z,11.20
2019-05-05T22:40:51.824Z,11.20
2019-05-05T22:42:55.045Z,11.20
2019-05-05T22:44:58.298Z,11.20
2019-05-05T22:47:01.624Z,11.20
2019-05-05T22:49:04.897Z,11.20
2019-05-05T22:51:08.178Z,11.20
2019-05-05T22:53:11.395Z,11.20
2019-05-05T22:55:14.649Z,11.20
2019-05-05T22:57:17.922Z,11.30
2019-05-05T22:59:23.567Z,11.30
2019-05-05T23:01:26.183Z,11.30
2019-05-05T23:03:36.873Z,11.30
2019-05-05T23:05:43.822Z,11.30
2019-05-05T23:07:46.823Z,11.30
2019-05-05T23:09:50.074Z,11.30
2019-05-05T23:11:54.578Z,11.30
2019-05-05T23:14:16.316Z,11.30
2019-05-05T23:16:27.422Z,11.30
2019-05-05T23:18:30.669Z,11.30
2019-05-05T23:20:50.471Z,11.20
2019-05-05T23:22:55.385Z,11.20
2019-05-05T23:25:06.346Z,11.20
2019-05-05T23:27:11.282Z,11.20
2019-05-05T23:29:14.523Z,11.20
2019-05-05T23:31:17.799Z,11.20
2019-05-05T23:33:21.060Z,11.20
2019-05-05T23:35:24.332Z,11.20
2019-05-05T23:37:27.594Z,11.10
2019-05-05T23:39:30.857Z,11.20
2019-05-05T23:41:34.944Z,11.20
2019-05-05T23:43:38.327Z,11.10
2019-05-05T23:45:41.553Z,11.10
2019-05-05T23:47:44.854Z,11.10
2019-05-05T23:49:48.149Z,11.10
2019-05-05T23:51:53.732Z,11.10
2019-05-05T23:53:56.423Z,11.10
2019-05-05T23:55:59.662Z,11.10
2019-05-05T23:58:03.748Z,11.10
